createdAt,value
2018-06-20T00:00:05.340Z,85.58
2018-06-20T00:01:05.384Z,85.58
2018-06-20T00:02:05.227Z,85.68
2018-06-20T00:03:05.231Z,85.78
2018-06-20T00:04:05.255Z,85.78
2018-06-20T00:05:05.179Z,85.68
2018-06-20T00:06:05.235Z,85.68
2018-06-20T00:07:05.240Z,85.97
2018-06-20T00:08:05.108Z,85.87
2018-06-20T00:09:05.093Z,85.87
2018-06-20T00:10:05.064Z,85.30
2018-06-20T00:11:05.072Z,85.68
2018-06-20T00:12:05.057Z,85.78
2018-06-20T00:13:04.979Z,85.97
2018-06-20T00:14:04.988Z,85.87
2018-06-20T00:15:05.007Z,85.97
2018-06-20T00:16:04.993Z,85.78
2018-06-20T00:17:04.928Z,85.78
2018-06-20T00:18:04.831Z,85.58
2018-06-20T00:19:04.765Z,85.49
2018-06-20T00:20:04.828Z,85.68
2018-06-20T00:21:04.729Z,85.68
2018-06-20T00:22:04.736Z,85.30
2018-06-20T00:23:04.670Z,85.87
2018-06-20T00:24:04.647Z,85.58
2018-06-20T00:25:04.615Z,85.97
2018-06-20T00:26:04.591Z,85.87
2018-06-20T00:27:04.567Z,85.39
2018-06-20T00:28:04.546Z,85.78
2018-06-20T00:29:04.527Z,85.78
2018-06-20T00:30:04.501Z,85.58
2018-06-20T00:31:04.478Z,85.78
2018-06-20T00:32:04.449Z,85.58
2018-06-20T00:33:04.419Z,85.97
2018-06-20T00:34:04.391Z,85.97
2018-06-20T00:35:04.375Z,85.78
2018-06-20T00:36:04.346Z,85.74
2018-06-20T00:37:04.318Z,85.30
2018-06-20T00:38:04.293Z,85.30
2018-06-20T00:39:04.266Z,85.87
2018-06-20T00:40:04.261Z,85.30
2018-06-20T00:41:04.231Z,85.58
2018-06-20T00:42:04.205Z,85.58
2018-06-20T00:43:04.174Z,85.30
2018-06-20T00:44:04.153Z,85.30
2018-06-20T00:45:04.122Z,85.30
2018-06-20T00:46:04.101Z,85.30
2018-06-20T00:47:04.078Z,85.78
2018-06-20T00:48:04.053Z,85.35
2018-06-20T00:49:04.030Z,85.64
2018-06-20T00:50:04.001Z,85.30
2018-06-20T00:51:03.972Z,85.74
2018-06-20T00:52:03.960Z,85.74
2018-06-20T00:53:03.930Z,85.74
2018-06-20T00:54:03.910Z,85.54
2018-06-20T00:55:03.886Z,85.35
2018-06-20T00:56:03.853Z,85.06
2018-06-20T00:57:03.829Z,85.44
2018-06-20T00:58:03.802Z,85.54
2018-06-20T00:59:03.783Z,84.97
2018-06-20T01:00:03.752Z,85.54
2018-06-20T01:01:03.727Z,85.78
2018-06-20T01:02:03.708Z,85.74
2018-06-20T01:03:03.690Z,85.54
2018-06-20T01:04:03.663Z,85.64
2018-06-20T01:05:03.717Z,85.64
2018-06-20T01:06:03.642Z,85.54
2018-06-20T01:07:03.613Z,85.54
2018-06-20T01:08:03.567Z,85.54
2018-06-20T01:09:03.568Z,85.35
2018-06-20T01:10:03.502Z,85.64
2018-06-20T01:11:03.496Z,85.44
2018-06-20T01:12:03.461Z,85.54
2018-06-20T01:13:03.457Z,85.20
2018-06-20T01:14:03.423Z,85.44
2018-06-20T01:15:03.396Z,85.54
2018-06-20T01:16:03.389Z,85.44
2018-06-20T01:17:03.338Z,85.54
2018-06-20T01:18:03.312Z,85.54
2018-06-20T01:19:03.321Z,85.64
2018-06-20T01:20:03.258Z,85.39
2018-06-20T01:21:03.267Z,85.64
2018-06-20T01:22:03.222Z,85.54
2018-06-20T01:23:03.182Z,85.35
2018-06-20T01:24:03.160Z,85.54
2018-06-20T01:25:03.164Z,85.35
2018-06-20T01:26:03.174Z,86.02
2018-06-20T01:27:03.108Z,85.64
2018-06-20T01:28:03.076Z,85.64
2018-06-20T01:29:03.076Z,85.35
2018-06-20T01:30:03.015Z,85.64
2018-06-20T01:31:02.993Z,85.44
2018-06-20T01:32:03.016Z,85.54
2018-06-20T01:33:02.936Z,85.44
2018-06-20T01:34:02.937Z,85.83
2018-06-20T01:35:02.938Z,85.54
2018-06-20T01:36:02.946Z,85.54
2018-06-20T01:37:02.841Z,85.35
2018-06-20T01:38:02.864Z,85.54
2018-06-20T01:39:02.828Z,85.83
2018-06-20T01:40:02.762Z,86.41
2018-06-20T01:41:02.752Z,85.83
2018-06-20T01:42:02.714Z,85.44
2018-06-20T01:43:02.685Z,85.44
2018-06-20T01:44:02.669Z,85.44
2018-06-20T01:45:02.644Z,85.74
2018-06-20T01:46:02.615Z,85.83
2018-06-20T01:47:02.617Z,85.74
2018-06-20T01:48:02.616Z,85.64
2018-06-20T01:49:02.548Z,85.74
2018-06-20T01:50:02.520Z,85.87
2018-06-20T01:51:02.488Z,86.16
2018-06-20T01:52:02.468Z,85.87
2018-06-20T01:53:02.443Z,86.16
2018-06-20T01:54:02.419Z,85.74
2018-06-20T01:55:02.385Z,85.83
2018-06-20T01:56:02.370Z,85.93
2018-06-20T01:57:02.347Z,86.22
2018-06-20T01:58:02.322Z,85.93
2018-06-20T01:59:02.292Z,86.12
2018-06-20T02:00:02.297Z,86.12
2018-06-20T02:01:02.291Z,86.07
2018-06-20T02:02:02.212Z,86.16
2018-06-20T02:03:02.236Z,86.16
2018-06-20T02:04:02.220Z,85.78
2018-06-20T02:05:02.171Z,86.07
2018-06-20T02:06:02.147Z,86.12
2018-06-20T02:07:02.135Z,86.02
2018-06-20T02:08:02.069Z,86.12
2018-06-20T02:09:02.050Z,86.02
2018-06-20T02:10:02.147Z,86.12
2018-06-20T02:11:01.999Z,86.55
2018-06-20T02:12:01.976Z,86.41
2018-06-20T02:13:01.961Z,86.31
2018-06-20T02:14:01.918Z,86.74
2018-06-20T02:15:01.892Z,86.31
2018-06-20T02:16:01.872Z,86.55
2018-06-20T02:17:01.845Z,86.31
2018-06-20T02:18:01.821Z,86.26
2018-06-20T02:19:01.811Z,86.51
2018-06-20T02:20:01.771Z,86.22
2018-06-20T02:21:01.750Z,86.35
2018-06-20T02:22:01.724Z,86.51
2018-06-20T02:23:01.696Z,86.41
2018-06-20T02:24:01.672Z,86.51
2018-06-20T02:25:01.646Z,86.45
2018-06-20T02:26:01.623Z,86.35
2018-06-20T02:27:01.602Z,86.07
2018-06-20T02:28:01.569Z,85.97
2018-06-20T02:29:01.550Z,86.35
2018-06-20T02:30:01.526Z,86.41
2018-06-20T02:31:01.499Z,86.26
2018-06-20T02:32:01.472Z,86.45
2018-06-20T02:33:01.443Z,86.65
2018-06-20T02:34:01.419Z,86.74
2018-06-20T02:35:01.394Z,86.65
2018-06-20T02:36:01.376Z,86.93
2018-06-20T02:37:01.346Z,86.55
2018-06-20T02:38:01.323Z,86.45
2018-06-20T02:39:01.312Z,86.16
2018-06-20T02:40:01.285Z,86.69
2018-06-20T02:41:01.253Z,86.26
2018-06-20T02:42:01.225Z,86.74
2018-06-20T02:43:01.240Z,86.41
2018-06-20T02:44:01.182Z,86.51
2018-06-20T02:45:01.149Z,86.74
2018-06-20T02:46:01.191Z,86.74
2018-06-20T02:47:01.113Z,86.26
2018-06-20T02:48:01.079Z,86.26
2018-06-20T02:49:01.137Z,86.69
2018-06-20T02:50:01.042Z,86.35
2018-06-20T02:51:01.007Z,86.74
2018-06-20T02:52:00.992Z,86.83
2018-06-20T02:53:00.984Z,86.35
2018-06-20T02:54:02.852Z,86.89
2018-06-20T02:55:00.915Z,86.55
2018-06-20T02:56:00.926Z,86.69
2018-06-20T02:57:00.912Z,86.69
2018-06-20T02:58:00.838Z,86.55
2018-06-20T02:59:00.850Z,86.60
2018-06-20T03:00:00.836Z,86.69
2018-06-20T03:01:00.753Z,86.51
2018-06-20T03:02:00.775Z,86.89
2018-06-20T03:03:00.759Z,86.60
2018-06-20T03:04:00.758Z,86.99
2018-06-20T03:05:00.700Z,86.41
2018-06-20T03:06:19.342Z,86.60
2018-06-20T03:08:05.440Z,86.51
2018-06-20T03:09:05.098Z,86.31
2018-06-20T03:11:00.011Z,86.99
2018-06-20T03:11:59.500Z,86.60
2018-06-20T03:14:12.605Z,87.08
2018-06-20T03:15:12.382Z,87.08
2018-06-20T03:17:31.212Z,86.89
2018-06-20T03:18:31.119Z,87.08
2018-06-20T03:20:39.105Z,86.79
2018-06-20T03:21:38.996Z,86.89
2018-06-20T03:23:57.841Z,86.79
2018-06-20T03:24:57.753Z,86.69
2018-06-20T03:26:55.815Z,86.79
2018-06-20T03:27:55.721Z,86.99
2018-06-20T03:30:01.611Z,86.89
2018-06-20T03:31:01.581Z,86.69
2018-06-20T03:33:05.918Z,86.69
2018-06-20T03:34:05.691Z,86.89
2018-06-20T03:36:24.663Z,87.08
2018-06-20T03:37:24.580Z,86.79
2018-06-20T03:39:28.573Z,86.89
2018-06-20T03:40:28.257Z,86.69
2018-06-20T03:42:39.765Z,87.08
2018-06-20T03:43:39.657Z,86.79
2018-06-20T03:45:44.089Z,86.89
2018-06-20T03:46:44.017Z,86.60
2018-06-20T03:48:46.938Z,87.12
2018-06-20T03:49:46.848Z,86.79
2018-06-20T03:51:50.219Z,86.69
2018-06-20T03:52:50.212Z,86.79
2018-06-20T03:54:54.544Z,86.89
2018-06-20T03:55:54.507Z,86.69
2018-06-20T03:58:04.832Z,87.08
2018-06-20T03:59:04.961Z,86.79
2018-06-20T04:01:24.530Z,86.79
2018-06-20T04:02:24.589Z,86.69
2018-06-20T04:04:28.992Z,87.08
2018-06-20T04:05:28.857Z,87.18
2018-06-20T04:07:36.728Z,87.37
2018-06-20T04:08:36.669Z,87.18
2018-06-20T04:10:58.536Z,87.51
2018-06-20T04:11:58.760Z,87.08
2018-06-20T04:14:03.099Z,87.51
2018-06-20T04:15:02.823Z,87.22
2018-06-20T04:17:09.720Z,86.74
2018-06-20T04:18:09.676Z,86.79
2018-06-20T04:20:13.408Z,87.12
2018-06-20T04:21:12.974Z,87.41
2018-06-20T04:23:37.509Z,87.70
2018-06-20T04:24:37.453Z,87.41
2018-06-20T04:27:05.353Z,86.74
2018-06-20T04:28:05.471Z,87.22
2018-06-20T04:30:11.222Z,87.32
2018-06-20T04:31:11.096Z,87.51
2018-06-20T04:33:15.930Z,86.93
2018-06-20T04:34:16.099Z,87.22
2018-06-20T04:35:15.833Z,87.22
2018-06-20T04:36:15.857Z,87.22
2018-06-20T04:37:15.787Z,87.12
2018-06-20T04:38:15.758Z,87.60
2018-06-20T04:39:15.733Z,86.74
2018-06-20T04:40:15.701Z,86.74
2018-06-20T04:41:15.682Z,87.32
2018-06-20T04:42:15.663Z,87.03
2018-06-20T04:43:15.644Z,87.22
2018-06-20T04:44:15.609Z,87.12
2018-06-20T04:45:15.587Z,87.12
2018-06-20T04:46:15.568Z,86.69
2018-06-20T04:47:15.541Z,87.32
2018-06-20T04:48:15.511Z,87.36
2018-06-20T04:49:15.486Z,86.88
2018-06-20T04:50:15.465Z,87.55
2018-06-20T04:51:15.441Z,87.46
2018-06-20T04:52:42.932Z,87.17
2018-06-20T04:54:11.671Z,87.36
2018-06-20T04:55:11.496Z,87.84
2018-06-20T04:57:22.448Z,87.07
2018-06-20T04:58:21.868Z,87.22
2018-06-20T05:00:26.733Z,87.07
2018-06-20T05:01:26.183Z,87.36
2018-06-20T05:03:34.217Z,87.36
2018-06-20T05:04:34.052Z,87.17
2018-06-20T05:06:39.937Z,87.65
2018-06-20T05:07:39.824Z,86.98
2018-06-20T05:09:47.776Z,87.07
2018-06-20T05:10:47.904Z,87.07
2018-06-20T05:12:52.307Z,87.07
2018-06-20T05:13:52.122Z,87.26
2018-06-20T05:15:59.969Z,86.88
2018-06-20T05:16:59.901Z,87.07
2018-06-20T05:19:04.126Z,87.17
2018-06-20T05:20:03.652Z,87.26
2018-06-20T05:22:08.041Z,87.46
2018-06-20T05:23:07.997Z,86.78
2018-06-20T05:25:18.457Z,87.26
2018-06-20T05:26:18.307Z,87.17
2018-06-20T05:28:37.214Z,86.88
2018-06-20T05:29:37.279Z,86.88
2018-06-20T05:31:31.833Z,86.98
2018-06-20T05:32:31.720Z,86.98
2018-06-20T05:34:34.986Z,87.21
2018-06-20T05:35:34.631Z,87.12
2018-06-20T05:37:45.193Z,87.50
2018-06-20T05:38:44.822Z,87.02
2018-06-20T05:40:48.760Z,87.12
2018-06-20T05:41:48.272Z,87.40
2018-06-20T05:43:56.059Z,86.69
2018-06-20T05:44:56.059Z,86.49
2018-06-20T05:47:04.366Z,86.88
2018-06-20T05:48:03.920Z,87.17
2018-06-20T05:50:04.252Z,87.17
2018-06-20T05:51:04.366Z,86.88
2018-06-20T05:53:11.492Z,87.17
2018-06-20T05:54:10.216Z,87.21
2018-06-20T05:56:13.086Z,86.69
2018-06-20T05:57:12.888Z,87.21
2018-06-20T05:59:11.867Z,86.63
2018-06-20T06:00:11.690Z,87.02
2018-06-20T06:02:12.099Z,86.78
2018-06-20T06:03:12.040Z,87.02
2018-06-20T06:05:15.420Z,87.21
2018-06-20T06:06:14.912Z,87.12
2018-06-20T06:08:20.747Z,87.02
2018-06-20T06:09:21.137Z,87.12
2018-06-20T06:10:20.712Z,87.02
2018-06-20T06:11:20.432Z,87.02
2018-06-20T06:12:20.337Z,86.92
2018-06-20T06:13:20.323Z,87.50
2018-06-20T06:14:20.633Z,87.12
2018-06-20T06:15:20.830Z,87.40
2018-06-20T06:16:20.504Z,87.21
2018-06-20T06:17:20.099Z,87.30
2018-06-20T06:18:20.062Z,86.87
2018-06-20T06:19:20.097Z,86.96
2018-06-20T06:20:20.013Z,87.16
2018-06-20T06:21:19.996Z,87.16
2018-06-20T06:22:20.001Z,86.96
2018-06-20T06:23:20.009Z,87.54
2018-06-20T06:24:19.948Z,87.06
2018-06-20T06:25:19.927Z,86.68
2018-06-20T06:26:19.887Z,87.06
2018-06-20T06:27:42.182Z,87.06
2018-06-20T06:29:14.769Z,86.87
2018-06-20T06:30:14.471Z,86.39
2018-06-20T06:32:18.766Z,87.06
2018-06-20T06:33:18.667Z,86.87
2018-06-20T06:35:26.898Z,86.29
2018-06-20T06:36:26.684Z,86.87
2018-06-20T06:38:35.296Z,86.82
2018-06-20T06:39:34.670Z,87.10
2018-06-20T06:41:44.187Z,86.14
2018-06-20T06:42:43.695Z,86.43
2018-06-20T06:44:56.779Z,86.00
2018-06-20T06:45:56.808Z,86.87
2018-06-20T06:48:06.991Z,87.16
2018-06-20T06:49:06.587Z,86.19
2018-06-20T06:51:11.407Z,86.91
2018-06-20T06:52:11.760Z,86.52
2018-06-20T06:54:23.113Z,86.14
2018-06-20T06:55:22.383Z,86.43
2018-06-20T06:57:56.185Z,86.14
2018-06-20T06:58:56.134Z,86.43
2018-06-20T07:01:02.594Z,86.18
2018-06-20T07:02:02.794Z,85.94
2018-06-20T07:04:06.073Z,86.04
2018-06-20T07:05:05.883Z,86.04
2018-06-20T07:07:10.502Z,85.66
2018-06-20T07:08:09.871Z,86.14
2018-06-20T07:10:16.074Z,85.85
2018-06-20T07:11:16.334Z,86.14
2018-06-20T07:12:15.401Z,86.04
2018-06-20T07:13:15.709Z,86.04
2018-06-20T07:14:15.599Z,86.33
2018-06-20T07:15:16.081Z,85.85
2018-06-20T07:16:16.013Z,85.66
2018-06-20T07:17:15.172Z,86.04
2018-06-20T07:18:15.161Z,86.14
2018-06-20T07:19:15.153Z,85.85
2018-06-20T07:20:15.109Z,85.94
2018-06-20T07:21:15.085Z,85.94
2018-06-20T07:22:15.092Z,85.75
2018-06-20T07:23:15.050Z,85.89
2018-06-20T07:24:15.034Z,85.99
2018-06-20T07:25:14.994Z,85.80
2018-06-20T07:26:14.971Z,85.64
2018-06-20T07:27:14.947Z,85.45
2018-06-20T07:28:14.928Z,85.26
2018-06-20T07:29:14.956Z,85.50
2018-06-20T07:30:14.873Z,85.60
2018-06-20T07:31:14.848Z,85.70
2018-06-20T07:32:14.860Z,85.50
2018-06-20T07:33:14.810Z,85.50
2018-06-20T07:34:14.837Z,85.37
2018-06-20T07:35:14.773Z,85.31
2018-06-20T07:36:14.838Z,85.50
2018-06-20T07:37:14.714Z,84.93
2018-06-20T07:38:14.689Z,85.60
2018-06-20T07:39:14.707Z,85.22
2018-06-20T07:40:14.652Z,84.93
2018-06-20T07:41:14.621Z,85.17
2018-06-20T07:42:14.615Z,85.31
2018-06-20T07:43:14.573Z,85.27
2018-06-20T07:44:14.557Z,85.22
2018-06-20T07:45:14.533Z,85.02
2018-06-20T07:46:14.532Z,85.60
2018-06-20T07:47:14.489Z,85.60
2018-06-20T07:48:14.463Z,85.16
2018-06-20T07:49:14.450Z,85.06
2018-06-20T07:50:14.412Z,84.97
2018-06-20T07:51:14.390Z,84.39
2018-06-20T07:52:14.369Z,84.68
2018-06-20T07:53:14.355Z,84.88
2018-06-20T07:54:14.339Z,84.97
2018-06-20T07:55:32.103Z,84.20
2018-06-20T07:57:17.863Z,84.58
2018-06-20T07:58:17.367Z,85.41
2018-06-20T08:00:25.200Z,84.64
2018-06-20T08:01:25.266Z,84.54
2018-06-20T08:03:29.323Z,84.74
2018-06-20T08:04:29.365Z,84.64
2018-06-20T08:06:32.006Z,84.83
2018-06-20T08:07:31.879Z,84.54
2018-06-20T08:09:39.602Z,84.97
2018-06-20T08:10:39.179Z,84.88
2018-06-20T08:12:33.099Z,84.78
2018-06-20T08:13:31.706Z,84.63
2018-06-20T08:15:39.633Z,84.91
2018-06-20T08:16:39.570Z,84.05
2018-06-20T08:18:45.646Z,83.75
2018-06-20T08:19:45.633Z,83.66
2018-06-20T08:21:52.197Z,84.28
2018-06-20T08:22:52.076Z,82.98
2018-06-20T08:24:58.110Z,84.19
2018-06-20T08:25:56.322Z,83.99
2018-06-20T08:28:04.594Z,82.83
2018-06-20T08:29:04.284Z,83.51
2018-06-20T08:31:05.902Z,83.03
2018-06-20T08:32:05.740Z,83.03
2018-06-20T08:33:06.194Z,83.03
2018-06-20T08:34:05.590Z,83.26
2018-06-20T08:35:05.545Z,83.36
2018-06-20T08:36:05.527Z,83.03
2018-06-20T08:37:05.504Z,83.89
2018-06-20T08:38:05.535Z,83.55
2018-06-20T08:39:05.459Z,84.09
2018-06-20T08:40:05.448Z,83.26
2018-06-20T08:41:05.414Z,83.45
2018-06-20T08:42:05.400Z,84.03
2018-06-20T08:43:05.374Z,84.13
2018-06-20T08:44:05.352Z,84.03
2018-06-20T08:45:05.333Z,83.74
2018-06-20T08:46:05.337Z,83.99
2018-06-20T08:47:05.279Z,83.70
2018-06-20T08:48:05.267Z,84.38
2018-06-20T08:49:05.257Z,84.47
2018-06-20T08:50:05.217Z,84.19
2018-06-20T08:51:05.193Z,83.80
2018-06-20T08:52:05.171Z,84.38
2018-06-20T08:53:05.186Z,84.03
2018-06-20T08:54:05.135Z,83.55
2018-06-20T08:55:05.114Z,83.70
2018-06-20T08:56:05.089Z,83.22
2018-06-20T08:57:05.064Z,83.61
2018-06-20T08:58:05.037Z,83.55
2018-06-20T08:59:05.024Z,83.16
2018-06-20T09:00:05.009Z,83.64
2018-06-20T09:01:04.975Z,83.78
2018-06-20T09:02:04.970Z,83.59
2018-06-20T09:03:04.940Z,83.49
2018-06-20T09:04:04.945Z,83.11
2018-06-20T09:05:04.887Z,83.01
2018-06-20T09:06:04.860Z,83.34
2018-06-20T09:07:04.861Z,83.44
2018-06-20T09:08:04.861Z,83.05
2018-06-20T09:09:04.799Z,83.92
2018-06-20T09:10:04.782Z,82.86
2018-06-20T09:11:04.794Z,82.95
2018-06-20T09:12:04.735Z,83.34
2018-06-20T09:13:04.725Z,83.11
2018-06-20T09:14:04.704Z,83.11
2018-06-20T09:15:04.674Z,83.40
2018-06-20T09:16:04.663Z,83.40
2018-06-20T09:17:04.633Z,83.69
2018-06-20T09:18:04.633Z,83.73
2018-06-20T09:19:04.588Z,83.40
2018-06-20T09:20:04.562Z,83.01
2018-06-20T09:21:04.607Z,83.25
2018-06-20T09:22:04.564Z,83.25
2018-06-20T09:23:04.499Z,82.28
2018-06-20T09:24:04.479Z,82.76
2018-06-20T09:25:04.631Z,82.60
2018-06-20T09:26:04.454Z,82.57
2018-06-20T09:27:04.423Z,83.05
2018-06-20T09:28:04.401Z,82.47
2018-06-20T09:29:04.451Z,83.15
2018-06-20T09:30:04.362Z,82.47
2018-06-20T09:31:04.346Z,82.86
2018-06-20T09:32:04.590Z,83.00
2018-06-20T09:33:04.289Z,82.32
2018-06-20T09:34:04.269Z,83.28
2018-06-20T09:35:04.254Z,82.37
2018-06-20T09:36:04.244Z,82.37
2018-06-20T09:37:04.207Z,82.51
2018-06-20T09:38:04.212Z,82.80
2018-06-20T09:39:04.218Z,82.51
2018-06-20T09:40:04.233Z,82.60
2018-06-20T09:41:04.182Z,82.70
2018-06-20T09:42:04.115Z,82.22
2018-06-20T09:43:04.088Z,82.35
2018-06-20T09:44:04.052Z,82.17
2018-06-20T09:45:04.044Z,81.83
2018-06-20T09:46:04.035Z,82.41
2018-06-20T09:47:03.999Z,82.03
2018-06-20T09:48:03.980Z,83.00
2018-06-20T09:49:03.966Z,82.51
2018-06-20T09:50:04.031Z,82.51
2018-06-20T09:51:03.930Z,82.57
2018-06-20T09:52:04.001Z,82.32
2018-06-20T09:53:03.879Z,82.80
2018-06-20T09:54:03.853Z,82.12
2018-06-20T09:55:06.530Z,82.60
2018-06-20T09:56:03.812Z,83.09
2018-06-20T09:57:03.819Z,82.32
2018-06-20T09:58:03.792Z,82.51
2018-06-20T09:59:03.748Z,83.00
2018-06-20T10:00:03.730Z,82.60
2018-06-20T10:01:03.709Z,83.05
2018-06-20T10:02:03.684Z,83.05
2018-06-20T10:03:03.671Z,82.66
2018-06-20T10:04:03.645Z,82.86
2018-06-20T10:05:03.625Z,82.57
2018-06-20T10:06:03.601Z,82.70
2018-06-20T10:07:03.591Z,82.47
2018-06-20T10:08:03.568Z,82.57
2018-06-20T10:09:03.591Z,82.60
2018-06-20T10:10:03.512Z,82.57
2018-06-20T10:11:03.498Z,82.95
2018-06-20T10:12:03.481Z,82.95
2018-06-20T10:13:03.689Z,82.95
2018-06-20T10:14:03.432Z,82.66
2018-06-20T10:15:03.426Z,83.15
2018-06-20T10:16:03.445Z,82.57
2018-06-20T10:17:03.381Z,83.25
2018-06-20T10:21:31.975Z,82.41
2018-06-20T10:22:31.304Z,83.42
2018-06-20T10:24:35.620Z,82.50
2018-06-20T10:25:35.587Z,82.05
2018-06-20T10:27:39.768Z,80.75
2018-06-20T10:28:38.828Z,81.04
2018-06-20T10:30:42.035Z,80.30
2018-06-20T10:31:41.499Z,80.54
2018-06-20T10:33:46.087Z,79.32
2018-06-20T10:34:44.530Z,78.44
2018-06-20T10:36:44.836Z,80.19
2018-06-20T10:37:45.377Z,79.76
2018-06-20T10:39:47.420Z,81.13
2018-06-20T10:40:47.616Z,81.04
2018-06-20T10:42:55.141Z,81.72
2018-06-20T10:43:54.080Z,81.20
2018-06-20T10:45:55.426Z,81.58
2018-06-20T10:46:54.845Z,81.58
2018-06-20T10:47:54.391Z,81.72
2018-06-20T10:48:54.066Z,81.62
2018-06-20T10:49:54.027Z,81.62
2018-06-20T10:50:54.004Z,81.47
2018-06-20T10:51:54.037Z,81.12
2018-06-20T10:52:53.965Z,80.54
2018-06-20T10:53:53.984Z,80.09
2018-06-20T10:54:53.976Z,78.34
2018-06-20T10:55:53.892Z,78.67
2018-06-20T10:56:53.883Z,77.84
2018-06-20T10:57:53.888Z,77.06
2018-06-20T10:58:53.909Z,76.57
2018-06-20T10:59:53.816Z,76.67
2018-06-20T11:00:53.807Z,77.61
2018-06-20T11:01:53.867Z,77.67
2018-06-20T11:02:53.754Z,78.69
2018-06-20T11:03:53.740Z,79.24
2018-06-20T11:04:53.817Z,79.47
2018-06-20T11:05:53.740Z,78.54
2018-06-20T11:06:53.675Z,78.87
2018-06-20T11:07:53.663Z,77.22
2018-06-20T11:08:53.695Z,77.61
2018-06-20T11:09:53.648Z,77.35
2018-06-20T11:10:53.621Z,76.05
2018-06-20T11:11:53.590Z,76.64
2018-06-20T11:12:53.635Z,76.92
2018-06-20T11:13:53.581Z,76.64
2018-06-20T11:14:53.540Z,76.77
2018-06-20T11:16:09.127Z,76.54
2018-06-20T11:18:04.510Z,76.44
2018-06-20T11:18:58.013Z,76.73
2018-06-20T11:21:02.061Z,76.77
2018-06-20T11:22:02.042Z,76.48
2018-06-20T11:23:03.624Z,75.08
2018-06-20T11:24:03.175Z,74.11
2018-06-20T11:25:01.945Z,73.52
2018-06-20T11:26:01.868Z,73.72
2018-06-20T11:27:01.844Z,76.21
2018-06-20T11:28:01.809Z,76.44
2018-06-20T11:29:01.793Z,74.73
2018-06-20T11:30:01.768Z,73.85
2018-06-20T11:31:01.888Z,73.27
2018-06-20T11:32:01.757Z,72.98
2018-06-20T11:33:01.709Z,72.53
2018-06-20T11:34:01.708Z,72.04
2018-06-20T11:35:01.711Z,70.75
2018-06-20T11:36:01.645Z,68.74
2018-06-20T11:37:01.641Z,70.00
2018-06-20T11:38:01.633Z,72.04
2018-06-20T11:39:01.595Z,72.63
2018-06-20T11:40:01.601Z,70.30
2018-06-20T11:41:01.555Z,69.58
2018-06-20T11:42:01.603Z,69.87
2018-06-20T11:43:01.518Z,70.50
2018-06-20T11:44:01.504Z,68.26
2018-06-20T11:45:01.487Z,66.89
2018-06-20T11:46:01.481Z,65.66
2018-06-20T11:47:01.474Z,66.83
2018-06-20T11:48:01.438Z,69.68
2018-06-20T11:49:01.413Z,70.10
2018-06-20T11:50:01.403Z,67.83
2018-06-20T11:51:01.405Z,66.53
2018-06-20T11:52:01.364Z,64.78
2018-06-20T11:53:01.347Z,65.88
2018-06-20T11:54:01.422Z,63.83
2018-06-20T11:55:01.380Z,62.82
2018-06-20T11:56:01.327Z,63.51
2018-06-20T11:57:01.284Z,62.60
2018-06-20T11:58:01.298Z,62.01
2018-06-20T11:59:01.351Z,63.60
2018-06-20T12:00:01.239Z,64.58
2018-06-20T12:01:01.223Z,64.48
2018-06-20T12:02:01.203Z,64.12
2018-06-20T12:03:01.200Z,63.51
2018-06-20T12:04:01.269Z,65.26
2018-06-20T12:05:01.241Z,64.39
2018-06-20T12:06:01.227Z,64.06
2018-06-20T12:07:01.140Z,66.21
2018-06-20T12:08:01.132Z,63.48
2018-06-20T12:09:01.150Z,61.72
2018-06-20T12:10:01.082Z,61.33
2018-06-20T12:11:01.076Z,61.32
2018-06-20T12:12:01.079Z,59.53
2018-06-20T12:13:01.053Z,61.12
2018-06-20T12:14:01.127Z,60.99
2018-06-20T12:15:01.003Z,60.89
2018-06-20T12:16:00.984Z,60.77
2018-06-20T12:17:00.996Z,61.29
2018-06-20T12:18:00.997Z,61.29
2018-06-20T12:19:01.002Z,62.85
2018-06-20T12:20:00.929Z,63.80
2018-06-20T12:21:00.936Z,63.67
2018-06-20T12:22:00.950Z,64.09
2018-06-20T12:23:00.896Z,62.56
2018-06-20T12:24:00.937Z,60.99
2018-06-20T12:25:00.860Z,61.79
2018-06-20T12:26:00.868Z,64.06
2018-06-20T12:27:01.055Z,65.46
2018-06-20T12:28:00.833Z,64.87
2018-06-20T12:29:00.797Z,63.57
2018-06-20T12:30:00.806Z,65.95
2018-06-20T12:31:00.818Z,66.73
2018-06-20T12:32:00.781Z,67.47
2018-06-20T12:33:01.089Z,67.28
2018-06-20T12:34:00.811Z,68.51
2018-06-20T12:35:00.769Z,66.96
2018-06-20T12:36:00.826Z,65.36
2018-06-20T12:37:19.026Z,63.80
2018-06-20T12:39:01.255Z,62.11
2018-06-20T12:40:01.258Z,60.57
2018-06-20T12:42:05.095Z,60.31
2018-06-20T12:43:04.383Z,59.89
2018-06-20T12:45:12.681Z,60.80
2018-06-20T12:46:12.432Z,60.80
2018-06-20T12:48:21.870Z,61.09
2018-06-20T12:49:20.069Z,58.65
2018-06-20T12:51:30.719Z,59.29
2018-06-20T12:52:30.723Z,59.07
2018-06-20T12:54:35.068Z,58.06
2018-06-20T12:55:33.918Z,57.99
2018-06-20T12:57:33.271Z,57.77
2018-06-20T12:58:31.778Z,59.04
2018-06-20T13:00:36.372Z,57.73
2018-06-20T13:01:35.800Z,58.64
2018-06-20T13:03:31.785Z,57.26
2018-06-20T13:04:31.332Z,57.21
2018-06-20T13:06:58.936Z,59.86
2018-06-20T13:09:32.193Z,60.06
2018-06-20T13:10:31.314Z,59.85
2018-06-20T13:12:28.758Z,55.33
2018-06-20T13:13:28.297Z,55.70
2018-06-20T13:15:36.919Z,55.60
2018-06-20T13:16:36.870Z,56.77
2018-06-20T13:18:43.134Z,56.58
2018-06-20T13:19:43.799Z,55.88
2018-06-20T13:23:32.162Z,53.11
2018-06-20T13:24:51.895Z,53.94
2018-06-20T13:26:32.521Z,54.19
2018-06-20T13:29:37.748Z,54.46
2018-06-20T13:30:37.242Z,53.69
2018-06-20T13:32:39.237Z,52.76
2018-06-20T13:33:40.525Z,51.25
2018-06-20T13:37:26.525Z,53.36
2018-06-20T13:38:25.283Z,52.18
2018-06-20T13:40:27.652Z,50.56
2018-06-20T13:41:27.470Z,53.06
2018-06-20T13:43:30.472Z,57.23
2018-06-20T13:44:30.449Z,57.74
2018-06-20T13:46:43.182Z,53.89
2018-06-20T13:52:38.072Z,51.15
2018-06-20T13:53:42.504Z,50.81
2018-06-20T13:56:21.838Z,50.39
2018-06-20T13:59:47.295Z,50.29
2018-06-20T14:02:52.262Z,53.03
2018-06-20T14:03:48.534Z,52.93
2018-06-20T14:05:51.862Z,54.44
2018-06-20T14:06:51.864Z,54.30
2018-06-20T14:08:59.960Z,52.81
2018-06-20T14:11:20.942Z,51.42
2018-06-20T14:12:20.861Z,50.42
2018-06-20T14:14:26.621Z,50.22
2018-06-20T14:15:26.021Z,50.59
2018-06-20T14:17:33.748Z,46.83
2018-06-20T14:18:33.857Z,46.06
2018-06-20T14:20:39.520Z,45.50
2018-06-20T14:21:39.608Z,44.20
2018-06-20T14:22:39.933Z,43.57
2018-06-20T14:23:39.427Z,43.79
2018-06-20T14:24:39.414Z,46.26
2018-06-20T14:25:39.403Z,46.98
2018-06-20T14:26:39.395Z,47.08
2018-06-20T14:27:39.407Z,46.95
2018-06-20T14:28:39.459Z,46.28
2018-06-20T14:29:39.415Z,46.06
2018-06-20T14:30:39.388Z,45.23
2018-06-20T14:31:39.413Z,45.52
2018-06-20T14:32:39.347Z,45.37
2018-06-20T14:33:39.344Z,43.44
2018-06-20T14:34:39.345Z,43.79
2018-06-20T14:35:39.357Z,44.38
2018-06-20T14:36:39.322Z,44.17
2018-06-20T14:37:39.394Z,45.42
2018-06-20T14:38:39.341Z,44.44
2018-06-20T14:39:39.302Z,45.26
2018-06-20T14:40:39.390Z,45.79
2018-06-20T14:41:39.326Z,44.69
2018-06-20T14:42:39.306Z,45.79
2018-06-20T14:43:39.274Z,45.87
2018-06-20T14:44:39.260Z,45.97
2018-06-20T14:45:39.268Z,44.57
2018-06-20T14:46:39.271Z,44.93
2018-06-20T14:47:39.252Z,43.75
2018-06-20T14:48:39.241Z,43.53
2018-06-20T14:49:39.288Z,43.68
2018-06-20T14:50:39.308Z,43.73
2018-06-20T14:51:39.304Z,45.36
2018-06-20T14:52:39.217Z,45.95
2018-06-20T14:53:39.221Z,45.62
2018-06-20T14:54:39.204Z,43.71
2018-06-20T14:55:39.195Z,44.15
2018-06-20T14:56:39.269Z,43.55
2018-06-20T14:57:39.190Z,43.87
2018-06-20T14:58:39.210Z,43.50
2018-06-20T14:59:39.170Z,42.65
2018-06-20T15:00:39.268Z,42.46
2018-06-20T15:01:39.160Z,43.18
2018-06-20T15:02:39.160Z,44.19
2018-06-20T15:03:39.161Z,43.70
2018-06-20T15:04:39.159Z,45.36
2018-06-20T15:05:39.153Z,47.84
2018-06-20T15:06:39.147Z,47.30
2018-06-20T15:07:39.165Z,47.99
2018-06-20T15:08:39.124Z,49.80
2018-06-20T15:09:39.176Z,51.61
2018-06-20T15:10:39.102Z,51.27
2018-06-20T15:11:39.102Z,48.55
2018-06-20T15:12:56.827Z,46.83
2018-06-20T15:14:58.246Z,45.92
2018-06-20T15:15:42.618Z,45.32
2018-06-20T15:17:47.890Z,42.36
2018-06-20T15:18:47.850Z,42.14
2018-06-20T15:23:26.604Z,44.94
2018-06-20T15:24:26.590Z,45.63
2018-06-20T15:26:36.510Z,44.40
2018-06-20T15:27:36.334Z,44.02